createdAt,value
2023-03-30T00:02:23.198Z,100021.75
2023-03-30T00:06:26.913Z,100020.64
2023-03-30T00:10:31.004Z,100020.21
2023-03-30T00:14:37.756Z,100012.82
2023-03-30T00:18:41.471Z,100008.67
2023-03-30T00:22:45.882Z,100001.23
2023-03-30T00:26:49.501Z,99995.20
2023-03-30T00:30:53.991Z,99988.70
2023-03-30T00:34:57.702Z,99989.52
2023-03-30T00:39:01.576Z,99982.67
2023-03-30T00:43:07.651Z,99988.67
2023-03-30T00:47:11.657Z,99987.70
2023-03-30T00:51:16.297Z,99984.54
2023-03-30T00:55:23.091Z,99977.63
2023-03-30T00:59:27.045Z,99970.67
2023-03-30T01:03:45.937Z,99963.61
2023-03-30T01:07:50.106Z,99953.30
2023-03-30T01:11:54.014Z,99954.71
2023-03-30T01:16:03.897Z,99951.45
2023-03-30T01:20:25.826Z,99949.07
2023-03-30T01:25:06.660Z,99947.48
2023-03-30T01:29:13.144Z,99950.70
2023-03-30T01:33:55.384Z,99945.45
2023-03-30T01:38:23.468Z,99931.14
2023-03-30T01:43:13.208Z,99931.32
2023-03-30T01:47:16.748Z,99920.38
2023-03-30T01:51:24.276Z,99912.33
2023-03-30T01:55:37.126Z,99909.86
2023-03-30T01:59:48.589Z,99914.00
2023-03-30T02:03:57.405Z,99907.17
2023-03-30T02:08:07.974Z,99904.52
2023-03-30T02:12:12.830Z,99902.02
2023-03-30T02:16:22.786Z,99900.27
2023-03-30T02:20:26.138Z,99894.44
2023-03-30T02:24:32.540Z,99890.95
2023-03-30T02:28:36.334Z,99884.54
2023-03-30T02:32:46.634Z,99872.64
2023-03-30T02:37:19.015Z,99862.42
2023-03-30T02:41:47.762Z,99849.89
2023-03-30T02:45:53.118Z,99840.14
2023-03-30T02:50:06.264Z,99833.69
2023-03-30T02:54:24.122Z,99824.89
2023-03-30T02:58:37.072Z,99817.22
2023-03-30T03:02:44.109Z,99816.52
2023-03-30T03:06:48.511Z,99815.77
2023-03-30T03:10:52.081Z,99814.46
2023-03-30T03:14:55.423Z,99806.00
2023-03-30T03:18:59.418Z,99790.83
2023-03-30T03:23:02.727Z,99784.81
2023-03-30T03:27:06.140Z,99774.54
2023-03-30T03:31:09.427Z,99746.13
2023-03-30T03:35:12.969Z,99742.89
2023-03-30T03:39:16.364Z,99775.77
2023-03-30T03:43:20.047Z,99807.55
2023-03-30T03:47:23.297Z,99814.08
2023-03-30T03:51:26.728Z,99812.38
2023-03-30T03:55:30.759Z,99799.32
2023-03-30T03:59:34.328Z,99769.48
2023-03-30T04:03:37.535Z,99748.30
2023-03-30T04:07:41.780Z,99737.80
2023-03-30T04:11:45.149Z,99746.58
2023-03-30T04:15:48.652Z,99741.27
2023-03-30T04:19:54.018Z,99740.50
2023-03-30T04:23:57.484Z,99735.64
2023-03-30T04:28:01.200Z,99727.33
2023-03-30T04:32:05.117Z,99722.73
2023-03-30T04:36:09.104Z,99717.35
2023-03-30T04:40:13.465Z,99717.76
2023-03-30T04:44:20.610Z,99715.33
2023-03-30T04:48:24.548Z,99710.67
2023-03-30T04:52:28.298Z,99699.86
2023-03-30T04:56:32.338Z,99696.06
2023-03-30T05:00:35.604Z,99692.89
2023-03-30T05:04:39.310Z,99688.75
2023-03-30T05:08:42.570Z,99683.39
2023-03-30T05:12:46.098Z,99679.33
2023-03-30T05:16:49.747Z,99685.35
2023-03-30T05:20:58.751Z,99691.08
2023-03-30T05:25:02.412Z,99680.77
2023-03-30T05:29:06.018Z,99673.84
2023-03-30T05:33:10.253Z,99690.55
2023-03-30T05:37:13.769Z,99689.27
2023-03-30T05:41:17.594Z,99684.27
2023-03-30T05:45:20.996Z,99684.84
2023-03-30T05:49:24.307Z,99680.80
2023-03-30T05:53:27.589Z,99673.75
2023-03-30T05:57:31.372Z,99662.26
2023-03-30T06:01:34.854Z,99656.30
2023-03-30T06:05:40.094Z,99654.56
2023-03-30T06:09:43.874Z,99658.33
2023-03-30T06:13:48.822Z,99666.81
2023-03-30T06:17:52.987Z,99670.11
2023-03-30T06:21:56.614Z,99672.98
2023-03-30T06:26:01.239Z,99670.41
2023-03-30T06:30:04.955Z,99674.02
2023-03-30T06:34:08.300Z,99671.33
2023-03-30T06:38:11.538Z,99664.89
2023-03-30T06:42:14.897Z,99647.86
2023-03-30T06:46:18.643Z,99638.52
2023-03-30T06:50:22.302Z,99643.15
2023-03-30T06:54:25.812Z,99636.14
2023-03-30T06:58:30.498Z,99632.61
2023-03-30T07:02:34.199Z,99632.63
2023-03-30T07:06:37.826Z,99638.08
2023-03-30T07:10:41.417Z,99636.13
2023-03-30T07:14:44.768Z,99628.64
2023-03-30T07:18:48.262Z,99632.77
2023-03-30T07:22:52.308Z,99611.09
2023-03-30T07:26:55.938Z,99609.01
2023-03-30T07:31:07.655Z,99603.17
2023-03-30T07:35:11.508Z,99597.25
2023-03-30T07:39:14.888Z,99584.09
2023-03-30T07:43:18.189Z,99582.57
2023-03-30T07:47:21.664Z,99584.98
2023-03-30T07:51:27.832Z,99584.45
2023-03-30T07:55:32.124Z,99580.80
2023-03-30T07:59:35.994Z,99580.07
2023-03-30T08:03:40.055Z,99574.63
2023-03-30T08:07:43.993Z,99565.91
2023-03-30T08:11:47.452Z,99562.09
2023-03-30T08:15:52.872Z,99539.40
2023-03-30T08:19:58.956Z,99535.58
2023-03-30T08:24:02.483Z,99536.21
2023-03-30T08:28:06.241Z,99534.78
2023-03-30T08:32:09.728Z,99534.69
2023-03-30T08:36:13.274Z,99522.76
2023-03-30T08:40:19.366Z,99516.27
2023-03-30T08:44:27.654Z,99504.88
2023-03-30T08:48:38.070Z,99504.68
2023-03-30T08:52:42.294Z,99506.67
2023-03-30T08:56:59.786Z,99498.20
2023-03-30T09:01:28.214Z,99494.30
2023-03-30T09:05:37.950Z,99488.67
2023-03-30T09:09:47.182Z,99476.01
2023-03-30T09:13:52.176Z,99463.88
2023-03-30T09:18:23.139Z,99455.77
2023-03-30T09:22:32.670Z,99447.95
2023-03-30T09:26:55.842Z,99450.92
2023-03-30T09:31:18.221Z,99445.05
2023-03-30T09:35:27.227Z,99432.21
2023-03-30T09:39:34.303Z,99430.73
2023-03-30T09:43:46.480Z,99430.84
2023-03-30T09:47:49.873Z,99436.33
2023-03-30T09:52:00.976Z,99437.31
2023-03-30T09:56:17.018Z,99432.88
2023-03-30T10:00:29.521Z,99429.80
2023-03-30T10:04:32.853Z,99429.64
2023-03-30T10:08:56.818Z,99427.66
2023-03-30T10:13:06.736Z,99418.98
2023-03-30T10:17:21.788Z,99418.77
2023-03-30T10:21:28.357Z,99414.65
2023-03-30T10:25:34.071Z,99415.11
2023-03-30T10:29:37.715Z,99418.67
2023-03-30T10:33:44.119Z,99424.30
2023-03-30T10:37:50.328Z,99422.94
2023-03-30T10:41:56.353Z,99436.30
2023-03-30T10:46:23.443Z,99440.45
2023-03-30T10:50:46.420Z,99439.70
2023-03-30T10:55:11.236Z,99436.27
2023-03-30T10:59:23.576Z,99441.50
2023-03-30T11:03:32.918Z,99439.78
2023-03-30T11:07:43.615Z,99444.96
2023-03-30T11:11:55.674Z,99449.98
2023-03-30T11:16:35.924Z,99451.97
2023-03-30T11:20:59.380Z,99455.90
2023-03-30T11:25:15.790Z,99463.39
2023-03-30T11:29:28.825Z,99473.55
2023-03-30T11:33:45.602Z,99482.67
2023-03-30T11:38:09.635Z,99486.01
2023-03-30T11:42:18.322Z,99482.09
2023-03-30T11:46:30.410Z,99485.34
2023-03-30T11:50:46.038Z,99483.94
2023-03-30T11:55:16.984Z,99480.05
2023-03-30T11:59:49.399Z,99484.42
2023-03-30T12:04:08.898Z,99478.38
2023-03-30T12:08:40.259Z,99462.59
2023-03-30T12:12:45.884Z,99461.20
2023-03-30T12:16:55.381Z,99463.05
2023-03-30T12:21:20.507Z,99454.23
2023-03-30T12:25:33.161Z,99449.36
2023-03-30T12:34:07.596Z,99445.23
2023-03-30T12:38:17.754Z,99443.73
2023-03-30T12:42:27.143Z,99437.41
2023-03-30T12:46:58.881Z,99437.92
2023-03-30T12:51:14.158Z,99430.23
2023-03-30T12:55:38.024Z,99424.45
2023-03-30T12:59:56.443Z,99411.48
2023-03-30T13:04:07.885Z,99410.73
2023-03-30T13:08:41.646Z,99409.83
2023-03-30T13:12:49.447Z,99403.54
2023-03-30T13:16:53.453Z,99400.45
2023-03-30T13:20:56.822Z,99396.20
2023-03-30T13:25:22.275Z,99392.30
2023-03-30T13:29:31.100Z,99384.98
2023-03-30T13:33:38.911Z,99373.20
2023-03-30T13:38:16.182Z,99356.45
2023-03-30T13:42:42.538Z,99338.56
2023-03-30T13:47:06.799Z,99325.77
2023-03-30T13:51:16.734Z,99312.67
2023-03-30T13:55:33.650Z,99298.27
2023-03-30T13:59:42.875Z,99295.73
2023-03-30T14:04:01.031Z,99288.22
2023-03-30T14:08:10.426Z,99285.96
2023-03-30T14:12:15.221Z,99289.68
2023-03-30T14:16:22.885Z,99289.54
2023-03-30T14:20:46.966Z,99287.13
2023-03-30T14:24:58.716Z,99287.59
2023-03-30T14:29:21.047Z,99295.05
2023-03-30T14:33:35.061Z,99293.80
2023-03-30T14:37:38.376Z,99302.69
2023-03-30T14:41:42.607Z,99307.88
2023-03-30T14:45:46.176Z,99306.71
2023-03-30T14:49:52.015Z,99300.20
2023-03-30T14:53:56.161Z,99295.73
2023-03-30T14:57:59.402Z,99288.91
2023-03-30T15:02:03.946Z,99283.07
2023-03-30T15:06:08.492Z,99271.52
2023-03-30T15:10:22.553Z,99277.23
2023-03-30T15:14:27.355Z,99271.55
2023-03-30T15:18:33.924Z,99265.36
2023-03-30T15:22:44.906Z,99265.33
2023-03-30T15:26:50.256Z,99269.45
2023-03-30T15:30:54.806Z,99254.14
2023-03-30T15:35:14.787Z,99251.10
2023-03-30T15:39:28.050Z,99239.70
2023-03-30T15:43:33.792Z,99240.23
2023-03-30T15:47:38.975Z,99237.36
2023-03-30T15:51:53.766Z,99229.08
2023-03-30T15:55:59.773Z,99227.23
2023-03-30T16:00:12.875Z,99219.27
2023-03-30T16:04:19.163Z,99213.18
2023-03-30T16:08:23.014Z,99208.94
2023-03-30T16:12:29.816Z,99213.66
2023-03-30T16:16:35.232Z,99212.30
2023-03-30T16:20:39.161Z,99210.64
2023-03-30T16:24:43.767Z,99201.54
2023-03-30T16:28:51.374Z,99188.81
2023-03-30T16:32:55.242Z,99188.39
2023-03-30T16:36:58.829Z,99196.45
2023-03-30T16:41:04.083Z,99195.77
2023-03-30T16:45:08.618Z,99199.84
2023-03-30T16:49:17.974Z,99199.77
2023-03-30T16:53:21.649Z,99204.31
2023-03-30T16:57:25.588Z,99206.66
2023-03-30T17:01:30.470Z,99213.77
2023-03-30T17:05:34.422Z,99224.05
2023-03-30T17:09:38.273Z,99238.39
2023-03-30T17:13:43.328Z,99247.88
2023-03-30T17:17:48.089Z,99237.14
2023-03-30T17:21:52.413Z,99225.00
2023-03-30T17:25:58.686Z,99232.73
2023-03-30T17:30:02.334Z,99247.70
2023-03-30T17:34:07.530Z,99257.98
2023-03-30T17:38:12.869Z,99266.72
2023-03-30T17:42:19.088Z,99261.41
2023-03-30T17:46:25.326Z,99259.96
2023-03-30T17:50:49.839Z,99258.42
2023-03-30T17:54:54.345Z,99260.09
2023-03-30T18:03:22.672Z,99269.10
2023-03-30T18:08:14.768Z,99291.02
2023-03-30T18:12:18.331Z,99311.42
2023-03-30T18:16:24.489Z,99353.77
2023-03-30T18:20:32.777Z,99351.31
2023-03-30T18:24:35.991Z,99362.08
2023-03-30T18:28:42.555Z,99357.54
2023-03-30T18:32:47.411Z,99371.55
2023-03-30T18:36:51.132Z,99378.80
2023-03-30T18:40:58.085Z,99377.29
2023-03-30T18:45:01.646Z,99387.30
2023-03-30T18:49:05.006Z,99392.19
2023-03-30T18:53:13.707Z,99385.66
2023-03-30T18:57:17.077Z,99402.73
2023-03-30T19:01:20.554Z,99402.77
2023-03-30T19:05:26.535Z,99400.50
2023-03-30T19:09:42.112Z,99395.68
2023-03-30T19:13:47.351Z,99397.68
2023-03-30T19:17:51.621Z,99395.17
2023-03-30T19:21:58.302Z,99406.76
2023-03-30T19:26:01.720Z,99418.84
2023-03-30T19:30:06.185Z,99420.40
2023-03-30T19:34:09.423Z,99416.56
2023-03-30T19:38:13.701Z,99410.07
2023-03-30T19:42:17.049Z,99405.00
2023-03-30T19:46:20.864Z,99403.13
2023-03-30T19:50:25.535Z,99408.27
2023-03-30T19:54:29.560Z,99419.04
2023-03-30T19:58:33.056Z,99424.07
2023-03-30T20:02:36.844Z,99421.03
2023-03-30T20:06:40.328Z,99418.07
2023-03-30T20:10:48.390Z,99407.71
2023-03-30T20:14:52.176Z,99413.01
2023-03-30T20:18:58.118Z,99407.98
2023-03-30T20:23:01.996Z,99406.61
2023-03-30T20:27:05.981Z,99412.86
2023-03-30T20:31:10.131Z,99424.58
2023-03-30T20:35:13.836Z,99420.09
2023-03-30T20:39:17.624Z,99421.41
2023-03-30T20:43:22.136Z,99417.48
2023-03-30T20:47:30.581Z,99420.33
2023-03-30T20:51:37.682Z,99412.31
2023-03-30T20:55:43.082Z,99409.80
2023-03-30T20:59:49.093Z,99415.90
2023-03-30T21:04:00.567Z,99417.29
2023-03-30T21:08:04.080Z,99424.41
2023-03-30T21:12:08.848Z,99431.57
2023-03-30T21:16:12.622Z,99433.43
2023-03-30T21:20:16.139Z,99430.19
2023-03-30T21:24:19.555Z,99429.85
2023-03-30T21:28:24.662Z,99434.29
2023-03-30T21:32:30.751Z,99428.66
2023-03-30T21:36:34.942Z,99427.67
2023-03-30T21:40:38.347Z,99430.61
2023-03-30T21:44:41.706Z,99431.55
2023-03-30T21:48:46.421Z,99429.93
2023-03-30T21:52:49.780Z,99433.26
2023-03-30T21:56:53.060Z,99429.96
2023-03-30T22:01:08.980Z,99430.27
2023-03-30T22:05:15.094Z,99434.73
2023-03-30T22:09:18.919Z,99433.00
2023-03-30T22:13:22.222Z,99431.34
2023-03-30T22:17:35.199Z,99427.94
2023-03-30T22:21:38.508Z,99421.84
2023-03-30T22:25:42.785Z,99422.30
2023-03-30T22:29:46.602Z,99416.20
2023-03-30T22:33:49.989Z,99411.48
2023-03-30T22:37:53.941Z,99408.67
2023-03-30T22:41:58.937Z,99408.50
2023-03-30T22:46:04.370Z,99411.50
2023-03-30T22:50:08.149Z,99409.39
2023-03-30T22:54:11.377Z,99404.44
2023-03-30T22:58:16.004Z,99403.05
2023-03-30T23:02:19.292Z,99401.56
2023-03-30T23:06:22.779Z,99403.06
2023-03-30T23:10:28.174Z,99399.40
2023-03-30T23:14:54.123Z,99394.65
2023-03-30T23:19:11.528Z,99396.14
2023-03-30T23:23:48.974Z,99389.79
2023-03-30T23:37:33.050Z,99386.73
2023-03-30T23:42:10.002Z,99382.17
2023-03-30T23:50:38.098Z,99376.30
2023-03-30T23:55:26.045Z,99373.71
